Time;durP1;ratioP1;P1;durP2;ratioP2;P2;SDS_P1;SDS_P2;PMS_P1;PMS_P2;Temp;Humidity;BMP_temperature;BMP_pressure;BME280_temperature;BME280_humidity;BME280_pressure;Samples;Min_cycle;Max_cycle;Signal;HPM_P1;HPM_P2
2022/08/31 00:04:55;;;;;;;4.00;3.60;;;21.30;96.80;;;;;;5048387;28;20664;-88
2022/08/31 00:07:22;;;;;;;5.60;4.20;;;21.30;95.20;;;;;;5045833;28;20722;-88
2022/08/31 00:09:50;;;;;;;4.10;3.70;;;21.40;95.00;;;;;;5044204;28;20712;-88
2022/08/31 00:12:17;;;;;;;5.93;4.27;;;21.40;96.70;;;;;;5048852;28;20626;-88
2022/08/31 00:14:46;;;;;;;6.73;3.83;;;21.40;94.90;;;;;;5055831;28;20671;-89
2022/08/31 00:17:13;;;;;;;5.80;4.43;;;21.40;95.20;;;;;;5048322;28;20622;-89
2022/08/31 00:19:40;;;;;;;4.33;3.93;;;21.40;96.10;;;;;;5049817;28;20695;-89
2022/08/31 00:22:07;;;;;;;6.60;3.87;;;21.50;96.10;;;;;;5046053;28;20728;-89
2022/08/31 00:24:34;;;;;;;4.90;3.57;;;21.60;95.20;;;;;;5045562;28;20727;-88
2022/08/31 00:27:01;;;;;;;4.57;3.60;;;21.50;97.30;;;;;;5050330;28;20705;-88
2022/08/31 00:29:28;;;;;;;4.17;3.80;;;21.60;96.50;;;;;;5048946;28;20662;-88
2022/08/31 00:31:56;;;;;;;5.10;4.03;;;21.40;96.60;;;;;;5047789;28;20640;-88
2022/08/31 00:34:25;;;;;;;5.50;4.80;;;21.50;95.90;;;;;;5046669;28;20662;-89
2022/08/31 00:36:52;;;;;;;4.90;4.40;;;21.50;96.60;;;;;;5048993;28;20702;-88
2022/08/31 00:39:19;;;;;;;4.97;4.00;;;21.40;99.30;;;;;;5046878;28;20627;-88
2022/08/31 00:41:46;;;;;;;4.10;3.70;;;21.50;99.90;;;;;;5048265;28;21163;-88
2022/08/31 00:44:13;;;;;;;4.03;3.63;;;21.50;99.90;;;;;;5045825;28;20707;-87
2022/08/31 00:46:42;;;;;;;4.87;4.10;;;21.20;98.70;;;;;;5048618;28;20610;-87
2022/08/31 00:49:15;;;;;;;4.33;3.93;;;21.10;99.60;;;;;;5045193;28;20666;-87
2022/08/31 00:51:46;;;;;;;5.27;4.50;;;21.10;99.90;;;;;;5048239;28;20630;-86
2022/08/31 00:54:15;;;;;;;4.47;4.07;;;21.20;99.90;;;;;;5046309;28;20685;-86
2022/08/31 00:56:43;;;;;;;4.37;4.00;;;21.30;99.90;;;;;;5044720;28;20641;-87
2022/08/31 00:59:11;;;;;;;10.20;5.63;;;21.20;99.90;;;;;;5046351;28;21106;-87
2022/08/31 01:01:38;;;;;;;5.30;4.80;;;21.20;99.90;;;;;;5052360;28;20637;-88
2022/08/31 01:04:08;;;;;;;6.53;4.37;;;21.30;99.90;;;;;;5047171;28;20661;-87
2022/08/31 01:06:36;;;;;;;6.27;4.53;;;21.20;99.90;;;;;;5047613;28;20644;-87
2022/08/31 01:09:06;;;;;;;16.00;6.23;;;21.00;99.90;;;;;;5045472;28;20653;-80
2022/08/31 01:11:34;;;;;;;10.97;6.30;;;20.90;99.90;;;;;;5045249;28;20618;-80
2022/08/31 01:14:02;;;;;;;15.70;7.70;;;20.80;99.90;;;;;;5045328;28;20649;-81
2022/08/31 01:16:34;;;;;;;11.90;6.70;;;20.60;99.90;;;;;;5046110;28;20623;-81
2022/08/31 01:19:05;;;;;;;10.57;6.93;;;20.40;99.90;;;;;;5045818;28;20645;-80
2022/08/31 01:21:40;;;;;;;11.17;6.97;;;20.20;99.90;;;;;;5045218;28;20635;-80
2022/08/31 01:24:09;;;;;;;8.40;7.70;;;20.00;99.90;;;;;;5042864;28;20649;-80
2022/08/31 01:26:38;;;;;;;12.80;7.33;;;19.80;99.90;;;;;;5043606;28;20628;-81
2022/08/31 01:29:06;;;;;;;8.43;7.30;;;19.60;99.90;;;;;;5047137;28;20675;-80
2022/08/31 01:31:35;;;;;;;11.57;7.43;;;19.40;99.90;;;;;;5045033;28;21004;-79
2022/08/31 01:34:02;;;;;;;8.23;7.30;;;19.30;99.90;;;;;;5046363;28;21050;-80
2022/08/31 01:36:29;;;;;;;10.33;7.57;;;19.10;99.90;;;;;;5043292;28;20631;-79
2022/08/31 01:38:56;;;;;;;9.40;7.43;;;19.00;99.90;;;;;;5046406;28;20653;-80
2022/08/31 01:41:24;;;;;;;12.67;7.70;;;18.90;99.90;;;;;;5044805;28;21109;-80
2022/08/31 01:43:53;;;;;;;8.60;7.57;;;18.80;99.90;;;;;;5046704;28;20668;-80
2022/08/31 01:46:21;;;;;;;13.40;9.30;;;18.70;99.90;;;;;;5043840;28;20634;-79
2022/08/31 01:48:48;;;;;;;8.40;7.60;;;18.60;99.90;;;;;;5044873;28;20995;-81
2022/08/31 01:51:17;;;;;;;8.50;7.70;;;18.60;99.90;;;;;;5042740;28;20634;-80
2022/08/31 01:53:45;;;;;;;8.67;7.80;;;18.50;99.90;;;;;;5045345;28;20655;-80
2022/08/31 01:56:14;;;;;;;8.43;7.63;;;18.50;99.90;;;;;;5041743;28;20633;-80
2022/08/31 01:58:42;;;;;;;11.70;8.17;;;18.50;99.90;;;;;;5047092;28;20636;-80
2022/08/31 02:01:10;;;;;;;9.43;8.70;;;18.40;99.90;;;;;;5043222;28;20632;-80
2022/08/31 02:03:37;;;;;;;9.40;8.60;;;18.40;99.90;;;;;;5045921;28;21007;-79
2022/08/31 02:06:07;;;;;;;9.47;8.40;;;18.30;99.90;;;;;;5043133;28;20645;-80
2022/08/31 02:08:34;;;;;;;10.70;9.00;;;18.30;99.90;;;;;;5044759;28;20977;-81
2022/08/31 02:11:01;;;;;;;9.50;8.70;;;18.30;99.90;;;;;;5044492;28;20669;-81
2022/08/31 02:13:28;;;;;;;9.87;8.83;;;18.30;99.90;;;;;;5044709;28;21017;-81
2022/08/31 02:15:56;;;;;;;9.03;8.33;;;18.30;99.90;;;;;;5045118;28;20629;-80
2022/08/31 02:18:23;;;;;;;10.10;8.80;;;18.30;99.90;;;;;;5042344;28;20631;-81
2022/08/31 02:20:50;;;;;;;8.47;7.63;;;18.30;99.90;;;;;;5045758;28;20626;-81
2022/08/31 02:23:16;;;;;;;8.60;7.80;;;18.20;99.90;;;;;;5043517;28;20650;-81
2022/08/31 02:25:43;;;;;;;9.90;8.53;;;18.30;99.90;;;;;;5042270;28;20630;-80
2022/08/31 02:28:12;;;;;;;8.90;8.07;;;18.20;99.90;;;;;;5043026;28;20982;-80
2022/08/31 02:30:40;;;;;;;9.70;8.87;;;18.20;99.90;;;;;;5044458;28;20761;-80
2022/08/31 02:33:09;;;;;;;8.93;8.23;;;18.20;99.90;;;;;;5044938;28;21152;-80
2022/08/31 02:35:37;;;;;;;9.40;8.50;;;18.20;99.90;;;;;;5042838;28;20640;-81
2022/08/31 02:38:04;;;;;;;9.30;8.40;;;18.10;99.90;;;;;;5043280;28;20632;-80
2022/08/31 02:40:31;;;;;;;11.20;8.50;;;18.10;99.90;;;;;;5044946;28;20630;-81
2022/08/31 02:42:58;;;;;;;9.00;8.20;;;18.10;99.90;;;;;;5044350;28;20648;-81
2022/08/31 02:45:25;;;;;;;9.63;8.83;;;18.00;99.90;;;;;;5045288;28;20960;-81
2022/08/31 02:47:51;;;;;;;8.73;7.93;;;18.10;99.90;;;;;;5044207;28;20984;-81
2022/08/31 02:50:20;;;;;;;9.53;8.47;;;18.10;99.90;;;;;;5041454;28;20666;-81
2022/08/31 02:52:48;;;;;;;9.30;8.50;;;18.00;99.90;;;;;;5044643;28;20638;-81
2022/08/31 02:55:16;;;;;;;9.10;8.20;;;18.10;99.90;;;;;;5042640;28;20646;-80
2022/08/31 02:57:43;;;;;;;8.37;7.67;;;18.00;99.90;;;;;;5039487;28;20638;-79
2022/08/31 03:00:12;;;;;;;8.83;8.03;;;18.10;99.90;;;;;;5043986;28;20972;-80
2022/08/31 03:02:39;;;;;;;8.33;7.63;;;18.10;99.90;;;;;;5044421;28;20633;-80
2022/08/31 03:05:09;;;;;;;8.87;8.00;;;18.10;99.90;;;;;;5042085;28;21195;-80
2022/08/31 03:07:38;;;;;;;9.17;8.43;;;18.10;99.90;;;;;;5045644;28;20632;-81
2022/08/31 03:10:06;;;;;;;10.23;8.90;;;18.10;99.90;;;;;;5042558;28;20661;-81
2022/08/31 03:12:34;;;;;;;10.47;9.57;;;18.10;99.90;;;;;;5045220;28;20664;-80
2022/08/31 03:15:01;;;;;;;10.63;9.33;;;18.10;99.90;;;;;;5044336;28;21072;-79
2022/08/31 03:17:28;;;;;;;10.27;9.37;;;18.00;99.90;;;;;;5042464;28;20637;-80
2022/08/31 03:20:01;;;;;;;10.40;9.50;;;18.00;99.90;;;;;;5045649;28;20633;-80
2022/08/31 03:22:28;;;;;;;8.80;8.17;;;18.10;99.90;;;;;;5040051;28;20711;-80
2022/08/31 03:24:56;;;;;;;10.20;9.20;;;18.10;99.90;;;;;;5042334;28;20668;-80
2022/08/31 03:27:23;;;;;;;10.80;9.93;;;18.10;99.90;;;;;;5043053;28;20634;-80
2022/08/31 03:29:50;;;;;;;11.53;10.10;;;18.10;99.90;;;;;;5043828;28;20703;-80
2022/08/31 03:32:17;;;;;;;10.50;9.60;;;18.00;99.90;;;;;;5043054;28;20641;-81
2022/08/31 03:34:45;;;;;;;12.30;11.00;;;18.00;99.90;;;;;;5043255;28;21108;-80
2022/08/31 03:37:12;;;;;;;11.60;10.43;;;18.00;99.90;;;;;;5041629;28;20634;-80
2022/08/31 03:39:39;;;;;;;10.10;9.30;;;18.00;99.90;;;;;;5043667;28;20667;-81
2022/08/31 03:42:07;;;;;;;10.70;9.73;;;18.00;99.90;;;;;;5044073;28;20634;-79
2022/08/31 03:44:34;;;;;;;9.77;8.87;;;17.90;99.90;;;;;;5045788;28;20646;-79
2022/08/31 03:47:01;;;;;;;13.53;9.77;;;17.90;99.90;;;;;;5047359;28;20626;-79
2022/08/31 03:49:28;;;;;;;11.47;10.30;;;17.90;99.90;;;;;;5046515;28;20627;-80
2022/08/31 03:51:55;;;;;;;9.90;9.03;;;17.90;99.90;;;;;;5044422;28;20627;-80
2022/08/31 03:54:21;;;;;;;23.77;10.00;;;17.90;99.90;;;;;;5047864;28;20654;-81
2022/08/31 03:56:48;;;;;;;10.30;9.30;;;17.90;99.90;;;;;;5046886;28;21475;-80
2022/08/31 03:59:16;;;;;;;10.60;9.10;;;17.90;99.90;;;;;;5048740;28;21005;-80
2022/08/31 04:01:44;;;;;;;10.10;9.30;;;17.90;99.90;;;;;;5048017;28;20625;-80
2022/08/31 04:04:12;;;;;;;11.53;10.40;;;17.90;99.90;;;;;;5044684;28;20673;-81
2022/08/31 04:06:40;;;;;;;10.53;9.63;;;17.90;99.90;;;;;;5047652;28;20625;-80
2022/08/31 04:09:07;;;;;;;10.77;9.97;;;17.90;99.90;;;;;;5046155;28;20622;-81
2022/08/31 04:11:34;;;;;;;11.93;10.73;;;17.90;99.90;;;;;;5047919;28;20673;-80
2022/08/31 04:14:00;;;;;;;11.00;10.03;;;17.90;99.90;;;;;;5046615;28;20657;-79
2022/08/31 04:16:33;;;;;;;11.40;10.30;;;17.90;99.90;;;;;;5045491;28;20662;-80
2022/08/31 04:19:01;;;;;;;11.63;10.57;;;17.90;99.90;;;;;;5047015;28;20624;-80
2022/08/31 04:21:30;;;;;;;12.47;11.17;;;17.90;99.90;;;;;;5046015;28;21043;-80
2022/08/31 04:23:58;;;;;;;12.10;10.73;;;17.90;99.90;;;;;;5046598;28;20714;-80
2022/08/31 04:26:27;;;;;;;11.77;10.90;;;17.90;99.90;;;;;;5042283;28;20618;-80
2022/08/31 04:28:55;;;;;;;11.83;10.63;;;17.90;99.90;;;;;;5047620;28;20652;-80
2022/08/31 04:31:23;;;;;;;11.73;10.63;;;17.90;99.90;;;;;;5044387;28;20674;-80
2022/08/31 04:33:52;;;;;;;12.00;11.00;;;17.90;99.90;;;;;;5048082;28;20660;-80
2022/08/31 04:36:21;;;;;;;11.20;10.30;;;17.90;99.90;;;;;;5044898;28;20721;-79
2022/08/31 04:38:52;;;;;;;11.77;10.87;;;17.90;99.90;;;;;;5046308;28;20636;-80
2022/08/31 04:41:21;;;;;;;11.83;10.60;;;17.90;99.90;;;;;;5047275;28;20627;-80
2022/08/31 04:43:50;;;;;;;11.10;10.30;;;17.90;99.90;;;;;;5047853;28;20668;-80
2022/08/31 04:46:19;;;;;;;12.73;11.60;;;17.90;99.90;;;;;;5045341;28;20636;-80
2022/08/31 04:48:46;;;;;;;12.97;11.90;;;17.90;99.90;;;;;;5046003;28;20638;-80
2022/08/31 04:51:17;;;;;;;14.53;13.43;;;17.90;99.90;;;;;;5043853;28;20672;-80
2022/08/31 04:53:44;;;;;;;14.60;13.17;;;17.90;99.90;;;;;;5047137;28;20660;-80
2022/08/31 04:56:14;;;;;;;13.17;11.93;;;17.90;99.90;;;;;;5043024;28;20626;-80
2022/08/31 04:58:41;;;;;;;14.13;12.83;;;17.80;99.90;;;;;;5047752;28;20697;-79
2022/08/31 05:01:08;;;;;;;14.20;13.03;;;17.90;99.90;;;;;;5044461;28;21404;-80
2022/08/31 05:03:35;;;;;;;14.67;13.33;;;17.90;99.90;;;;;;5045469;28;21199;-79
2022/08/31 05:06:02;;;;;;;15.30;13.70;;;17.90;99.90;;;;;;5044040;28;21370;-80
2022/08/31 05:08:30;;;;;;;16.00;14.37;;;17.90;99.90;;;;;;5044296;28;20630;-80
2022/08/31 05:10:57;;;;;;;16.80;15.40;;;17.90;99.90;;;;;;5045321;28;20673;-80
2022/08/31 05:13:24;;;;;;;15.43;14.23;;;17.90;99.90;;;;;;5043569;28;20658;-80
2022/08/31 05:15:53;;;;;;;15.37;14.23;;;17.90;99.90;;;;;;5047291;28;20661;-79
2022/08/31 05:18:20;;;;;;;16.20;14.80;;;18.00;99.90;;;;;;5046215;28;20644;-80
2022/08/31 05:20:47;;;;;;;17.53;15.87;;;17.90;99.90;;;;;;5037599;28;20650;-80
2022/08/31 05:23:14;;;;;;;15.73;14.33;;;18.00;99.90;;;;;;5038634;28;20645;-80
2022/08/31 05:25:43;;;;;;;17.93;16.10;;;18.00;99.90;;;;;;5040737;28;20625;-80
2022/08/31 05:28:10;;;;;;;15.90;14.50;;;18.00;99.90;;;;;;5044631;28;20629;-80
2022/08/31 05:30:37;;;;;;;16.03;14.50;;;18.00;99.90;;;;;;5042497;28;21006;-79
2022/08/31 05:33:04;;;;;;;18.20;16.53;;;18.10;99.90;;;;;;5047270;28;21215;-80
2022/08/31 05:35:31;;;;;;;18.77;17.07;;;18.10;99.90;;;;;;5045370;28;20630;-80
2022/08/31 05:37:57;;;;;;;18.57;17.13;;;18.10;99.90;;;;;;5045265;28;20625;-80
2022/08/31 05:40:24;;;;;;;18.30;16.80;;;18.00;99.90;;;;;;5045068;28;20622;-79
2022/08/31 05:42:52;;;;;;;18.07;16.77;;;18.00;99.90;;;;;;5044529;28;20661;-79
2022/08/31 05:45:19;;;;;;;18.27;16.77;;;18.00;99.90;;;;;;5043497;28;21146;-79
2022/08/31 05:47:46;;;;;;;18.33;16.63;;;18.00;99.90;;;;;;5045283;28;21001;-79
2022/08/31 05:50:13;;;;;;;19.43;17.73;;;18.00;99.90;;;;;;5043603;28;21022;-78
2022/08/31 05:52:39;;;;;;;17.50;15.90;;;18.10;99.90;;;;;;5043675;28;20768;-78
2022/08/31 05:55:07;;;;;;;17.03;15.50;;;18.10;99.90;;;;;;5043957;28;20642;-79
2022/08/31 05:57:33;;;;;;;17.33;15.47;;;18.10;99.90;;;;;;5043309;28;20996;-79
2022/08/31 06:00:02;;;;;;;24.57;16.47;;;18.20;99.90;;;;;;5043596;28;20729;-78
2022/08/31 06:02:28;;;;;;;17.27;15.70;;;18.20;99.90;;;;;;5044740;28;21201;-79
2022/08/31 06:04:57;;;;;;;19.17;17.60;;;18.20;99.90;;;;;;5041620;28;20653;-78
2022/08/31 06:07:24;;;;;;;18.17;16.60;;;18.20;99.90;;;;;;5043563;28;20635;-79
2022/08/31 06:09:50;;;;;;;18.20;16.63;;;18.20;99.90;;;;;;5044074;28;20633;-79
2022/08/31 06:12:19;;;;;;;18.30;16.80;;;18.20;99.90;;;;;;5038938;28;20678;-79
2022/08/31 06:14:46;;;;;;;18.00;16.57;;;18.20;99.90;;;;;;5045024;28;20728;-78
2022/08/31 06:17:16;;;;;;;16.93;15.43;;;18.20;99.90;;;;;;5041785;28;20646;-78
2022/08/31 06:19:43;;;;;;;16.23;14.73;;;18.20;99.90;;;;;;5045471;28;20637;-79
2022/08/31 06:22:09;;;;;;;17.30;15.77;;;18.20;99.90;;;;;;5041625;28;20646;-78
2022/08/31 06:24:37;;;;;;;15.80;14.40;;;18.20;99.90;;;;;;5041687;28;21182;-78
2022/08/31 06:27:06;;;;;;;16.37;15.07;;;18.20;99.90;;;;;;5042651;28;20732;-78
2022/08/31 06:29:33;;;;;;;18.93;17.20;;;18.30;99.90;;;;;;5044846;28;20640;-78
2022/08/31 06:32:06;;;;;;;19.07;17.30;;;18.40;99.90;;;;;;5043489;28;20686;-78
2022/08/31 06:34:35;;;;;;;19.90;18.17;;;18.30;99.90;;;;;;5042667;28;20657;-79
2022/08/31 06:37:02;;;;;;;18.07;16.67;;;18.30;99.90;;;;;;5041825;28;21001;-80
2022/08/31 06:39:30;;;;;;;17.40;15.90;;;18.30;99.90;;;;;;5041031;28;20752;-78
2022/08/31 06:41:56;;;;;;;18.50;16.80;;;18.30;99.90;;;;;;5041907;28;20636;-79
2022/08/31 06:44:23;;;;;;;18.30;16.70;;;18.30;99.90;;;;;;5042263;28;21022;-80
2022/08/31 06:46:51;;;;;;;16.33;14.97;;;18.40;99.90;;;;;;5043151;28;20629;-80
2022/08/31 06:49:18;;;;;;;16.93;15.30;;;18.40;99.90;;;;;;5043681;28;20634;-80
2022/08/31 06:51:46;;;;;;;16.93;15.53;;;18.40;99.90;;;;;;5042670;28;20666;-80
2022/08/31 06:54:15;;;;;;;18.33;16.40;;;18.40;99.90;;;;;;5040096;28;21000;-80
2022/08/31 06:56:42;;;;;;;16.97;15.40;;;18.40;99.90;;;;;;5042473;28;20629;-80
2022/08/31 06:59:09;;;;;;;16.33;14.93;;;18.40;99.90;;;;;;5042597;28;20641;-81
2022/08/31 07:01:36;;;;;;;16.10;14.80;;;18.40;99.90;;;;;;5042424;28;20673;-80
2022/08/31 07:04:05;;;;;;;15.17;14.00;;;18.40;99.90;;;;;;5040589;28;20665;-80
2022/08/31 07:06:35;;;;;;;16.80;14.90;;;18.50;99.90;;;;;;5041363;28;20951;-80
2022/08/31 07:09:06;;;;;;;15.57;14.00;;;18.40;99.90;;;;;;5044203;28;20625;-80
2022/08/31 07:11:36;;;;;;;15.50;14.20;;;18.50;99.90;;;;;;5043217;28;20661;-80
2022/08/31 07:14:05;;;;;;;17.80;16.13;;;18.50;99.90;;;;;;5040830;28;20744;-80
2022/08/31 07:16:33;;;;;;;16.90;15.50;;;18.50;99.90;;;;;;5041193;28;21140;-80
2022/08/31 07:19:02;;;;;;;18.40;15.93;;;18.50;99.90;;;;;;5042864;28;20614;-80
2022/08/31 07:21:31;;;;;;;16.47;14.40;;;18.50;99.90;;;;;;5044655;28;20615;-80
2022/08/31 07:24:00;;;;;;;15.77;14.57;;;18.50;99.90;;;;;;5046130;28;20656;-80
2022/08/31 07:26:32;;;;;;;16.47;15.00;;;18.50;99.90;;;;;;5045347;28;20680;-80
2022/08/31 07:29:01;;;;;;;17.23;15.73;;;18.50;99.90;;;;;;5044544;28;20638;-80
2022/08/31 07:31:36;;;;;;;17.57;15.87;;;18.50;99.90;;;;;;5046329;28;20814;-80
2022/08/31 07:34:05;;;;;;;16.20;14.70;;;18.60;99.90;;;;;;5047697;28;20653;-80
2022/08/31 07:36:32;;;;;;;16.30;15.00;;;18.60;99.90;;;;;;5044890;28;20630;-80
2022/08/31 07:44:31;;;;;;;13.83;12.40;;;18.70;99.90;;;;;;5046105;28;20680;-80
2022/08/31 07:46:58;;;;;;;14.20;12.83;;;18.70;99.90;;;;;;5047763;28;20675;-80
2022/08/31 07:49:25;;;;;;;13.03;11.93;;;18.70;99.90;;;;;;5044311;28;20630;-80
2022/08/31 07:51:54;;;;;;;12.17;11.17;;;18.70;99.90;;;;;;5045692;28;20673;-80
2022/08/31 07:54:26;;;;;;;12.67;11.47;;;18.70;99.90;;;;;;5045392;28;20659;-80
2022/08/31 07:56:59;;;;;;;10.27;9.37;;;18.80;99.90;;;;;;5044467;28;20625;-80
2022/08/31 07:59:26;;;;;;;11.23;10.37;;;18.80;99.90;;;;;;5043736;28;20622;-81
2022/08/31 08:01:54;;;;;;;10.00;9.10;;;18.80;99.90;;;;;;5045894;28;20696;-81
2022/08/31 08:04:24;;;;;;;11.20;10.20;;;18.80;99.90;;;;;;5041968;28;20674;-80
2022/08/31 08:06:51;;;;;;;9.37;8.57;;;18.80;99.90;;;;;;5046152;28;20637;-80
2022/08/31 08:09:18;;;;;;;11.43;8.73;;;18.80;99.90;;;;;;5043279;28;21105;-80
2022/08/31 08:11:45;;;;;;;10.53;9.53;;;18.80;99.90;;;;;;5045583;28;20679;-80
2022/08/31 08:14:14;;;;;;;10.00;9.10;;;18.90;99.90;;;;;;5044750;28;21104;-78
2022/08/31 08:16:40;;;;;;;10.63;9.87;;;18.90;99.90;;;;;;5044746;28;20645;-80
2022/08/31 08:19:07;;;;;;;11.00;9.07;;;19.00;99.90;;;;;;5046159;28;20634;-80
2022/08/31 08:21:34;;;;;;;11.43;10.10;;;19.00;99.90;;;;;;5045704;28;21054;-80
2022/08/31 08:24:01;;;;;;;11.43;10.27;;;19.00;99.90;;;;;;5045498;28;20653;-80
2022/08/31 08:26:28;;;;;;;11.20;10.10;;;19.00;99.90;;;;;;5045218;28;20852;-80
2022/08/31 08:28:54;;;;;;;9.43;8.73;;;18.90;99.90;;;;;;5046462;28;20683;-79
2022/08/31 08:31:23;;;;;;;9.97;9.00;;;19.00;99.90;;;;;;5045054;28;20665;-80
2022/08/31 08:33:51;;;;;;;11.00;9.20;;;18.90;99.90;;;;;;5046457;28;20658;-80
2022/08/31 08:36:19;;;;;;;10.33;9.43;;;19.10;99.90;;;;;;5043211;28;20694;-80
2022/08/31 08:38:47;;;;;;;12.67;9.83;;;19.10;99.90;;;;;;5044835;28;20660;-80
2022/08/31 08:41:17;;;;;;;9.33;8.50;;;19.10;99.90;;;;;;5040704;28;20621;-80
2022/08/31 08:43:46;;;;;;;9.33;8.53;;;19.10;99.90;;;;;;5042169;28;21232;-80
2022/08/31 08:46:14;;;;;;;9.27;8.50;;;19.10;99.90;;;;;;5042406;28;21107;-80
2022/08/31 08:48:45;;;;;;;8.63;7.93;;;19.20;99.90;;;;;;5038578;28;20637;-80
2022/08/31 08:51:16;;;;;;;10.40;8.93;;;19.20;99.90;;;;;;5043344;28;20705;-80
2022/08/31 08:53:45;;;;;;;8.17;7.40;;;19.30;99.90;;;;;;5045762;28;21216;-80
2022/08/31 08:56:13;;;;;;;8.33;7.70;;;19.30;99.90;;;;;;5042615;28;20621;-79
2022/08/31 08:58:41;;;;;;;8.47;7.80;;;19.30;99.90;;;;;;5046797;28;20630;-80
2022/08/31 09:01:10;;;;;;;12.60;8.57;;;19.40;99.90;;;;;;5043813;28;20654;-80
2022/08/31 09:03:52;;;;;;;10.50;9.37;;;19.30;99.90;;;;;;5044470;28;20672;-80
2022/08/31 09:06:30;;;;;;;9.40;8.33;;;19.40;99.90;;;;;;5042929;28;21000;-80
2022/08/31 09:09:17;;;;;;;9.03;8.17;;;19.40;99.90;;;;;;5045383;28;20640;-80
2022/08/31 09:11:55;;;;;;;10.47;9.20;;;19.50;99.90;;;;;;5041660;28;20669;-79
2022/08/31 09:14:35;;;;;;;9.60;8.80;;;19.50;99.90;;;;;;5043145;28;20716;-80
2022/08/31 09:17:15;;;;;;;9.63;8.63;;;19.60;99.90;;;;;;5043758;28;20977;-79
2022/08/31 09:19:59;;;;;;;8.87;8.07;;;19.60;99.90;;;;;;5046155;28;20681;-78
2022/08/31 09:22:26;;;;;;;11.07;9.23;;;19.70;99.90;;;;;;5042678;28;21182;-80
2022/08/31 09:24:55;;;;;;;9.97;8.80;;;19.80;99.90;;;;;;5044402;28;20654;-80
2022/08/31 09:27:44;;;;;;;14.03;9.30;;;19.70;99.90;;;;;;5044510;28;21267;-79
2022/08/31 09:30:16;;;;;;;9.40;7.90;;;19.80;99.90;;;;;;5042802;28;20684;-79
2022/08/31 09:32:54;;;;;;;10.37;9.53;;;19.90;99.90;;;;;;5043884;28;21299;-79
2022/08/31 09:35:27;;;;;;;9.37;8.57;;;19.90;99.90;;;;;;5040114;28;20623;-79
2022/08/31 09:38:00;;;;;;;11.80;8.30;;;19.90;99.90;;;;;;5043270;28;21464;-79
2022/08/31 09:40:37;;;;;;;10.97;9.50;;;20.00;99.90;;;;;;5043694;28;20641;-79
2022/08/31 09:43:08;;;;;;;11.30;10.37;;;20.10;99.90;;;;;;5042715;28;20675;-79
2022/08/31 09:45:36;;;;;;;10.07;8.37;;;20.20;99.90;;;;;;5044095;28;20642;-79
2022/08/31 09:48:06;;;;;;;7.83;6.87;;;20.20;99.90;;;;;;5042825;28;20687;-79
2022/08/31 09:50:39;;;;;;;9.40;7.60;;;20.30;99.90;;;;;;5042275;28;21231;-79
2022/08/31 09:56:12;;;;;;;8.00;7.10;;;20.40;99.90;;;;;;5039462;28;20581;-79
2022/08/31 09:58:39;;;;;;;6.60;6.03;;;20.50;99.90;;;;;;5044999;28;20622;-79
2022/08/31 10:01:12;;;;;;;7.50;6.37;;;20.50;99.90;;;;;;5040925;28;21084;-79
2022/08/31 10:03:44;;;;;;;9.80;7.07;;;20.60;99.90;;;;;;5043133;28;20658;-79
2022/08/31 10:06:44;;;;;;;7.80;7.13;;;20.60;99.90;;;;;;5042311;28;20621;-79
2022/08/31 10:09:19;;;;;;;8.60;6.53;;;20.70;99.90;;;;;;5040808;28;20634;-79
2022/08/31 10:11:48;;;;;;;7.13;5.47;;;20.60;99.90;;;;;;5042869;28;20664;-79
2022/08/31 10:14:25;;;;;;;6.67;6.20;;;20.60;99.90;;;;;;5047300;28;20752;-79
2022/08/31 10:17:01;;;;;;;7.07;6.37;;;20.50;99.90;;;;;;5042958;28;20622;-79
2022/08/31 10:19:38;;;;;;;7.30;6.43;;;20.60;99.90;;;;;;5043367;28;20717;-79
2022/08/31 10:22:24;;;;;;;9.17;7.10;;;20.60;99.90;;;;;;5041198;28;20617;-79
2022/08/31 10:25:20;;;;;;;7.10;6.40;;;20.60;99.90;;;;;;5040366;28;20657;-79
2022/08/31 10:27:52;;;;;;;7.93;6.17;;;20.60;99.90;;;;;;5044453;28;20654;-79
2022/08/31 10:30:29;;;;;;;7.37;6.53;;;20.60;99.90;;;;;;5040935;28;20623;-79
2022/08/31 10:33:04;;;;;;;8.67;7.70;;;20.80;99.90;;;;;;5043528;28;20977;-79
2022/08/31 10:35:36;;;;;;;6.97;6.37;;;20.70;99.90;;;;;;5042848;28;20680;-79
2022/08/31 10:38:16;;;;;;;7.70;6.87;;;20.70;99.90;;;;;;5042015;28;21034;-79
2022/08/31 10:40:49;;;;;;;8.83;6.73;;;20.80;99.90;;;;;;5043670;28;20629;-79
2022/08/31 10:43:20;;;;;;;7.10;6.50;;;20.90;99.90;;;;;;5042365;28;20657;-79
2022/08/31 10:45:51;;;;;;;7.40;6.90;;;20.90;99.90;;;;;;5042622;28;20697;-79
2022/08/31 10:48:20;;;;;;;8.67;6.63;;;21.00;99.90;;;;;;5044626;28;20717;-79
2022/08/31 10:51:08;;;;;;;9.10;8.00;;;20.90;99.90;;;;;;5042701;28;20634;-79
2022/08/31 10:54:05;;;;;;;8.13;7.30;;;21.00;99.90;;;;;;5043688;28;20776;-79
2022/08/31 10:56:40;;;;;;;7.13;6.43;;;21.00;99.90;;;;;;5043836;28;20652;-79
2022/08/31 10:59:18;;;;;;;7.67;7.17;;;21.10;99.90;;;;;;5041811;28;20728;-79
2022/08/31 11:01:53;;;;;;;7.50;6.80;;;21.10;99.90;;;;;;5041478;28;20641;-79
2022/08/31 11:04:57;;;;;;;6.20;5.70;;;21.20;99.90;;;;;;5040875;28;20658;-79
2022/08/31 11:07:39;;;;;;;8.00;5.47;;;21.20;99.90;;;;;;5042015;28;21488;-79
2022/08/31 11:10:22;;;;;;;10.50;6.47;;;21.20;99.90;;;;;;5040931;28;20621;-79
2022/08/31 11:12:56;;;;;;;8.43;7.17;;;21.10;99.90;;;;;;5039026;28;20671;-79
2022/08/31 11:15:52;;;;;;;6.83;6.20;;;21.10;99.90;;;;;;5043239;28;20680;-79
2022/08/31 11:18:54;;;;;;;7.20;6.60;;;21.00;99.90;;;;;;5039545;28;20666;-79
2022/08/31 11:21:51;;;;;;;7.60;6.67;;;20.90;99.90;;;;;;5032390;28;20673;-79
2022/08/31 11:24:44;;;;;;;7.43;6.70;;;20.90;99.90;;;;;;5037812;28;20701;-79
2022/08/31 11:27:22;;;;;;;9.27;7.70;;;20.80;99.90;;;;;;5041151;28;20708;-79
2022/08/31 11:29:56;;;;;;;6.73;6.10;;;20.80;99.90;;;;;;5038066;28;21207;-79
2022/08/31 11:32:27;;;;;;;7.93;5.53;;;20.80;99.90;;;;;;5043726;28;20688;-79
2022/08/31 11:34:56;;;;;;;8.50;7.23;;;20.70;99.90;;;;;;5041746;28;20665;-79
2022/08/31 11:37:54;;;;;;;7.77;6.87;;;20.70;99.90;;;;;;5040208;28;20641;-79
2022/08/31 11:41:02;;;;;;;8.03;7.43;;;20.60;99.90;;;;;;5040663;28;20755;-79
2022/08/31 11:43:44;;;;;;;9.10;6.97;;;20.60;99.90;;;;;;5037930;28;20725;-79
2022/08/31 11:46:57;;;;;;;12.33;7.20;;;20.50;99.90;;;;;;5041862;28;20721;-79
2022/08/31 11:49:43;;;;;;;14.23;7.37;;;20.50;99.90;;;;;;4993253;28;20650;-79
2022/08/31 11:52:39;;;;;;;7.33;6.63;;;20.40;99.90;;;;;;5040335;28;21035;-79
2022/08/31 11:55:28;;;;;;;9.10;8.20;;;20.40;99.90;;;;;;5040527;28;20704;-79
2022/08/31 11:58:18;;;;;;;8.53;7.70;;;20.30;99.90;;;;;;5038838;28;21339;-79
2022/08/31 12:00:52;;;;;;;11.87;7.63;;;20.30;99.90;;;;;;5035508;28;20740;-79
2022/08/31 12:03:38;;;;;;;7.20;6.60;;;20.30;99.90;;;;;;5042108;28;20815;-79
2022/08/31 12:06:07;;;;;;;8.40;6.60;;;20.30;99.90;;;;;;5043820;28;20645;-79
2022/08/31 12:08:51;;;;;;;8.80;7.90;;;20.30;99.90;;;;;;5047838;28;20721;-79
2022/08/31 12:11:28;;;;;;;9.10;7.33;;;20.30;99.90;;;;;;5047761;28;20634;-79
2022/08/31 12:14:00;;;;;;;8.53;7.73;;;20.30;99.90;;;;;;5046797;28;20677;-79
2022/08/31 12:16:42;;;;;;;8.37;7.53;;;20.40;99.90;;;;;;5046993;28;21100;-79
2022/08/31 12:25:49;;;;;;;12.00;6.63;;;20.40;99.90;;;;;;5044706;28;20616;-79
2022/08/31 12:28:24;;;;;;;11.13;7.90;;;20.50;99.90;;;;;;5043135;28;21128;-79
2022/08/31 12:30:54;;;;;;;8.17;7.47;;;20.60;99.90;;;;;;5043143;28;20652;-79
2022/08/31 12:33:26;;;;;;;9.90;7.33;;;20.60;99.90;;;;;;5044590;28;20773;-79
2022/08/31 12:35:56;;;;;;;8.77;8.07;;;20.60;99.90;;;;;;5033339;28;20643;-79
2022/08/31 12:38:26;;;;;;;9.73;8.83;;;20.70;99.90;;;;;;5044559;28;20644;-79
2022/08/31 12:40:55;;;;;;;10.03;9.03;;;20.90;99.90;;;;;;5045961;28;21167;-79
2022/08/31 12:43:25;;;;;;;10.63;8.30;;;20.80;99.90;;;;;;5046657;28;20736;-79
2022/08/31 12:46:28;;;;;;;9.53;8.60;;;21.00;99.90;;;;;;5047260;28;20807;-79
2022/08/31 12:49:14;;;;;;;10.60;7.30;;;21.10;99.90;;;;;;4961974;28;20720;-79
2022/08/31 12:51:46;;;;;;;8.97;8.00;;;21.20;99.90;;;;;;5038949;28;20645;-79
2022/08/31 12:54:50;;;;;;;7.40;6.23;;;21.30;99.90;;;;;;5043622;28;20680;-79
2022/08/31 12:57:32;;;;;;;7.67;7.07;;;21.40;99.90;;;;;;5046042;28;20633;-79
2022/08/31 13:00:06;;;;;;;11.77;8.00;;;21.60;99.90;;;;;;5047484;28;20625;-79
2022/08/31 13:02:37;;;;;;;8.60;7.80;;;21.70;99.90;;;;;;5044571;28;20641;-79
2022/08/31 13:05:15;;;;;;;7.70;7.00;;;21.80;99.90;;;;;;5043327;28;20664;-79
2022/08/31 13:07:42;;;;;;;7.83;7.13;;;21.90;99.90;;;;;;5045028;28;20629;-79
2022/08/31 13:10:12;;;;;;;11.53;7.67;;;21.90;99.90;;;;;;5043670;28;20688;-79
2022/08/31 13:12:47;;;;;;;9.67;8.63;;;22.10;99.90;;;;;;5045718;28;20669;-79
2022/08/31 13:15:23;;;;;;;7.80;7.00;;;22.20;99.90;;;;;;5043632;28;20667;-79
2022/08/31 13:17:52;;;;;;;8.73;6.83;;;22.30;99.90;;;;;;5041529;28;20725;-79